createdAt,value
2019-05-06T00:00:56.570Z,5.72
2019-05-06T00:03:17.736Z,5.42
2019-05-06T00:05:47.110Z,5.62
2019-05-06T00:08:16.749Z,4.55
2019-05-06T00:10:45.506Z,6.12
2019-05-06T00:13:14.428Z,4.67
2019-05-06T00:15:43.709Z,5.25
2019-05-06T00:18:13.825Z,5.83
2019-05-06T00:20:43.846Z,6.42
2019-05-06T00:23:29.091Z,6.60
2019-05-06T00:26:13.697Z,5.10
2019-05-06T00:28:47.155Z,7.17
2019-05-06T00:31:23.979Z,5.53
2019-05-06T00:34:01.683Z,5.70
2019-05-06T00:36:30.428Z,6.87
2019-05-06T00:39:04.605Z,6.93
2019-05-06T00:41:36.386Z,6.90
2019-05-06T00:44:05.113Z,4.83
2019-05-06T00:46:34.637Z,4.17
2019-05-06T00:49:07.428Z,5.17
2019-05-06T00:51:36.490Z,5.37
2019-05-06T00:54:26.475Z,4.97
2019-05-06T00:56:55.582Z,5.17
2019-05-06T00:59:24.369Z,5.78
2019-05-06T01:01:53.884Z,5.87
2019-05-06T01:04:24.510Z,7.30
2019-05-06T01:06:54.415Z,6.72
2019-05-06T01:09:25.447Z,6.23
2019-05-06T01:11:55.809Z,8.60
2019-05-06T01:14:26.209Z,6.80
2019-05-06T01:16:55.086Z,6.15
2019-05-06T01:19:24.007Z,5.90
2019-05-06T01:21:54.027Z,6.10
2019-05-06T01:24:23.825Z,7.33
2019-05-06T01:26:53.639Z,6.20
2019-05-06T01:29:24.114Z,7.28
2019-05-06T01:31:54.371Z,5.40
2019-05-06T01:34:24.464Z,6.42
2019-05-06T01:36:59.190Z,5.75
2019-05-06T01:39:34.031Z,6.25
2019-05-06T01:42:06.867Z,6.00
2019-05-06T01:44:35.783Z,5.12
2019-05-06T01:47:04.821Z,6.80
2019-05-06T01:49:34.013Z,5.58
2019-05-06T01:52:04.097Z,5.30
2019-05-06T01:54:34.362Z,6.00
2019-05-06T01:57:04.470Z,7.53
2019-05-06T01:59:35.846Z,7.58
2019-05-06T02:02:05.759Z,5.53
2019-05-06T02:04:36.953Z,6.15
2019-05-06T02:07:05.838Z,6.22
2019-05-06T02:09:35.642Z,6.03
2019-05-06T02:12:04.778Z,5.73
2019-05-06T02:14:34.275Z,6.40
2019-05-06T02:17:11.308Z,7.03
2019-05-06T02:19:40.216Z,5.92
2019-05-06T02:22:13.598Z,5.50
2019-05-06T02:24:50.402Z,5.43
2019-05-06T02:27:27.848Z,4.72
2019-05-06T02:30:00.031Z,5.25
2019-05-06T02:32:39.300Z,5.77
2019-05-06T02:35:18.951Z,6.20
2019-05-06T02:37:47.840Z,6.50
2019-05-06T02:40:28.866Z,5.10
2019-05-06T02:42:57.751Z,5.35
2019-05-06T02:45:33.531Z,5.70
2019-05-06T02:48:04.427Z,5.10
2019-05-06T02:50:42.669Z,5.58
2019-05-06T02:53:13.332Z,5.50
2019-05-06T02:55:43.107Z,5.00
2019-05-06T02:58:14.738Z,4.60
2019-05-06T03:00:42.970Z,5.30
2019-05-06T03:03:13.990Z,4.25
2019-05-06T03:05:43.935Z,5.28
2019-05-06T03:08:13.683Z,5.67
2019-05-06T03:10:44.354Z,5.00
2019-05-06T03:13:14.285Z,4.35
2019-05-06T03:15:45.823Z,5.17
2019-05-06T03:18:18.473Z,5.63
2019-05-06T03:20:48.835Z,6.00
2019-05-06T03:23:23.654Z,4.40
2019-05-06T03:25:53.348Z,5.20
2019-05-06T03:28:22.657Z,4.90
2019-05-06T03:30:55.927Z,5.35
2019-05-06T03:33:45.104Z,5.22
2019-05-06T03:36:06.228Z,6.92
2019-05-06T03:38:22.994Z,4.35
2019-05-06T03:40:53.777Z,4.65
2019-05-06T03:43:23.280Z,5.20
2019-05-06T03:46:04.257Z,5.05
2019-05-06T03:48:36.897Z,4.78
2019-05-06T03:51:05.646Z,6.35
2019-05-06T03:53:35.612Z,4.67
2019-05-06T03:56:06.172Z,6.50
2019-05-06T03:58:43.466Z,5.12
2019-05-06T04:01:13.194Z,5.25
2019-05-06T04:03:47.765Z,4.47
2019-05-06T04:06:14.014Z,4.50
2019-05-06T04:08:43.927Z,5.08
2019-05-06T04:11:13.911Z,7.35
2019-05-06T04:13:43.678Z,6.78
2019-05-06T04:16:17.150Z,5.50
2019-05-06T04:18:47.497Z,5.00
2019-05-06T04:21:32.793Z,7.25
2019-05-06T04:24:04.078Z,5.12
2019-05-06T04:26:40.309Z,6.33
2019-05-06T04:29:12.919Z,5.67
2019-05-06T04:31:43.367Z,5.58
2019-05-06T04:34:15.942Z,5.77
2019-05-06T04:36:45.088Z,4.55
2019-05-06T04:39:13.856Z,7.60
2019-05-06T04:41:48.493Z,5.80
2019-05-06T04:44:23.743Z,6.40
2019-05-06T04:46:54.387Z,8.00
2019-05-06T04:49:23.712Z,5.10
2019-05-06T04:51:54.074Z,5.75
2019-05-06T04:54:26.588Z,5.78
2019-05-06T04:56:56.189Z,5.12
2019-05-06T04:59:25.160Z,6.55
2019-05-06T05:01:53.863Z,5.22
2019-05-06T05:04:31.673Z,5.63
2019-05-06T05:06:54.817Z,6.17
2019-05-06T05:09:23.649Z,6.75
2019-05-06T05:11:53.919Z,7.85
2019-05-06T05:14:39.745Z,6.08
2019-05-06T05:17:10.232Z,6.28
2019-05-06T05:19:39.338Z,4.95
2019-05-06T05:22:08.326Z,5.08
2019-05-06T05:24:38.640Z,7.70
2019-05-06T05:27:09.528Z,5.17
2019-05-06T05:29:44.616Z,5.62
2019-05-06T05:32:13.687Z,5.47
2019-05-06T05:34:43.602Z,6.95
2019-05-06T05:37:12.781Z,5.20
2019-05-06T05:39:42.581Z,5.95
2019-05-06T05:42:18.038Z,7.25
2019-05-06T05:44:57.658Z,5.33
2019-05-06T05:47:26.306Z,6.20
2019-05-06T05:50:03.296Z,6.58
2019-05-06T05:52:33.037Z,7.72
2019-05-06T05:55:02.903Z,9.10
2019-05-06T05:57:35.426Z,5.92
2019-05-06T06:00:05.346Z,6.67
2019-05-06T06:02:34.302Z,6.67
2019-05-06T06:05:03.056Z,6.37
2019-05-06T06:07:32.734Z,6.15
2019-05-06T06:10:04.715Z,5.53
2019-05-06T06:12:33.614Z,5.17
2019-05-06T06:15:04.035Z,6.60
2019-05-06T06:17:34.370Z,5.03
2019-05-06T06:20:22.124Z,6.17
2019-05-06T06:22:54.932Z,5.62
2019-05-06T06:25:24.913Z,6.42
2019-05-06T06:27:54.072Z,6.85
2019-05-06T06:30:30.484Z,5.05
2019-05-06T06:32:59.439Z,5.90
2019-05-06T06:35:36.781Z,7.05
2019-05-06T06:38:12.194Z,6.72
2019-05-06T06:40:42.538Z,5.25
2019-05-06T06:43:13.158Z,6.37
2019-05-06T06:45:42.234Z,9.55
2019-05-06T06:48:12.324Z,7.20
2019-05-06T06:50:42.663Z,8.30
2019-05-06T06:53:12.314Z,7.15
2019-05-06T06:55:42.772Z,6.95
2019-05-06T06:58:19.298Z,7.05
2019-05-06T07:01:07.944Z,5.55
2019-05-06T07:03:47.020Z,4.63
2019-05-06T07:06:17.496Z,7.22
2019-05-06T07:08:46.281Z,6.60
2019-05-06T07:11:15.491Z,9.53
2019-05-06T07:13:45.817Z,6.62
2019-05-06T07:16:14.810Z,6.53
2019-05-06T07:18:45.102Z,7.05
2019-05-06T07:21:15.586Z,7.12
2019-05-06T07:23:44.456Z,6.50
2019-05-06T07:26:14.826Z,8.47
2019-05-06T07:28:43.826Z,5.83
2019-05-06T07:31:23.849Z,6.45
2019-05-06T07:33:52.331Z,5.60
2019-05-06T07:36:22.838Z,5.42
2019-05-06T07:38:54.015Z,6.58
2019-05-06T07:41:45.891Z,6.72
2019-05-06T07:44:27.765Z,8.20
2019-05-06T07:47:12.589Z,7.85
2019-05-06T07:49:48.611Z,5.07
2019-05-06T07:52:17.537Z,5.53
2019-05-06T07:54:47.100Z,6.35
2019-05-06T07:57:16.075Z,7.22
2019-05-06T07:59:46.028Z,5.97
2019-05-06T08:02:22.618Z,7.90
2019-05-06T08:04:54.634Z,5.17
2019-05-06T08:07:23.468Z,5.25
2019-05-06T08:09:53.136Z,4.45
2019-05-06T08:12:22.388Z,3.55
2019-05-06T08:14:57.408Z,6.83
2019-05-06T08:17:27.826Z,6.10
2019-05-06T08:19:57.741Z,4.22
2019-05-06T08:22:43.420Z,4.62
2019-05-06T08:25:12.410Z,3.50
2019-05-06T08:27:53.130Z,4.87
2019-05-06T08:30:27.925Z,4.80
2019-05-06T08:32:58.934Z,4.03
2019-05-06T08:35:30.220Z,6.33
2019-05-06T08:38:02.363Z,4.47
2019-05-06T08:40:36.772Z,4.92
2019-05-06T08:43:14.512Z,3.95
2019-05-06T08:45:43.534Z,3.12
2019-05-06T08:48:13.371Z,5.80
2019-05-06T08:50:49.775Z,4.97
2019-05-06T08:53:35.359Z,4.03
2019-05-06T08:56:16.163Z,3.02
2019-05-06T08:58:47.379Z,5.72
2019-05-06T09:01:24.830Z,4.25
2019-05-06T09:04:06.319Z,3.65
2019-05-06T09:06:30.223Z,3.35
2019-05-06T09:08:57.071Z,3.83
2019-05-06T09:11:27.726Z,4.30
2019-05-06T09:14:03.173Z,4.97
2019-05-06T09:16:29.567Z,3.85
2019-05-06T09:18:58.848Z,3.62
2019-05-06T09:21:28.148Z,3.72
2019-05-06T09:24:02.663Z,3.22
2019-05-06T09:26:33.514Z,5.05
2019-05-06T09:29:03.872Z,3.20
2019-05-06T09:31:35.184Z,3.60
2019-05-06T09:34:06.116Z,4.05
2019-05-06T09:36:44.232Z,3.67
2019-05-06T09:39:12.844Z,4.00
2019-05-06T09:41:46.772Z,5.58
2019-05-06T09:44:14.409Z,4.08
2019-05-06T09:46:45.189Z,3.75
2019-05-06T09:49:22.885Z,4.17
2019-05-06T09:51:52.903Z,4.53
2019-05-06T09:54:39.231Z,2.40
2019-05-06T10:00:12.921Z,3.12
2019-05-06T10:02:44.476Z,2.50
2019-05-06T10:05:13.498Z,1.85
2019-05-06T10:07:52.361Z,2.45
2019-05-06T10:10:22.352Z,4.35
2019-05-06T10:12:53.226Z,1.70
2019-05-06T10:15:23.861Z,4.13
2019-05-06T10:18:12.146Z,2.00
2019-05-06T10:20:53.043Z,2.90
2019-05-06T10:23:24.727Z,2.65
2019-05-06T10:25:54.139Z,4.92
2019-05-06T10:28:41.358Z,3.83
2019-05-06T10:31:12.736Z,3.95
2019-05-06T10:34:03.082Z,2.92
2019-05-06T10:36:36.401Z,5.13
2019-05-06T10:39:09.815Z,5.28
2019-05-06T10:41:42.239Z,3.98
2019-05-06T10:44:14.101Z,3.98
2019-05-06T10:46:43.755Z,3.77
2019-05-06T10:49:13.810Z,3.62
2019-05-06T10:52:02.240Z,4.15
2019-05-06T10:54:32.526Z,4.28
2019-05-06T10:57:06.177Z,3.58
2019-05-06T10:59:36.792Z,4.15
2019-05-06T11:02:18.094Z,2.58
2019-05-06T11:04:47.219Z,4.50
2019-05-06T11:07:28.244Z,3.07
2019-05-06T11:09:46.849Z,2.37
2019-05-06T11:12:16.095Z,2.30
2019-05-06T11:14:45.366Z,3.08
2019-05-06T11:17:18.278Z,2.95
2019-05-06T11:19:48.318Z,3.00
2019-05-06T11:22:20.935Z,3.52
2019-05-06T11:24:47.699Z,3.47
2019-05-06T11:27:27.533Z,3.40
2019-05-06T11:30:02.266Z,2.52
2019-05-06T11:32:33.078Z,2.62
2019-05-06T11:35:05.635Z,1.92
2019-05-06T11:37:46.269Z,4.00
2019-05-06T11:40:06.832Z,2.52
2019-05-06T11:42:36.071Z,2.70
2019-05-06T11:45:08.207Z,2.50
2019-05-06T11:47:37.228Z,2.20
2019-05-06T11:50:14.478Z,3.40
2019-05-06T11:52:43.610Z,3.10
2019-05-06T11:55:27.550Z,3.40
2019-05-06T11:57:45.502Z,2.58
2019-05-06T12:00:16.099Z,2.90
2019-05-06T12:02:48.460Z,3.77
2019-05-06T12:05:15.580Z,4.30
2019-05-06T12:08:01.071Z,4.55
2019-05-06T12:10:18.988Z,4.28
2019-05-06T12:12:48.095Z,5.08
2019-05-06T12:15:17.352Z,2.87
2019-05-06T12:17:46.788Z,4.47
2019-05-06T12:20:15.640Z,3.75
2019-05-06T12:22:45.168Z,2.92
2019-05-06T12:25:15.573Z,2.72
2019-05-06T12:27:45.007Z,4.90
2019-05-06T12:30:14.491Z,2.80
2019-05-06T12:32:44.836Z,4.07
2019-05-06T12:35:22.219Z,2.58
2019-05-06T12:37:53.883Z,4.47
2019-05-06T12:40:23.186Z,5.72
2019-05-06T12:42:55.156Z,3.83
2019-05-06T12:45:25.775Z,3.47
2019-05-06T12:47:56.213Z,2.80
2019-05-06T12:50:25.323Z,2.90
2019-05-06T12:52:57.742Z,2.95
2019-05-06T12:55:26.257Z,3.33
2019-05-06T12:57:55.652Z,3.83
2019-05-06T13:00:25.513Z,3.37
2019-05-06T13:02:56.367Z,4.10
2019-05-06T13:05:27.489Z,3.87
2019-05-06T13:07:56.371Z,3.12
2019-05-06T13:10:25.393Z,3.27
2019-05-06T13:12:56.228Z,3.17
2019-05-06T13:15:29.784Z,2.90
2019-05-06T13:17:58.741Z,3.02
2019-05-06T13:20:29.565Z,3.52
2019-05-06T13:23:08.896Z,3.80
2019-05-06T13:25:33.385Z,2.52
2019-05-06T13:28:03.669Z,3.85
2019-05-06T13:30:32.893Z,3.50
2019-05-06T13:33:13.621Z,3.47
2019-05-06T13:35:42.974Z,3.43
2019-05-06T13:38:11.949Z,3.77
2019-05-06T13:40:53.777Z,3.40
2019-05-06T13:43:13.337Z,3.33
2019-05-06T13:45:44.040Z,4.45
2019-05-06T13:48:14.363Z,2.72
2019-05-06T13:50:44.741Z,3.45
2019-05-06T13:53:14.815Z,2.55
2019-05-06T13:55:43.838Z,4.42
2019-05-06T13:58:12.654Z,3.33
2019-05-06T14:00:42.605Z,4.25
2019-05-06T14:03:11.565Z,3.80
2019-05-06T14:05:44.698Z,3.50
2019-05-06T14:08:14.550Z,2.35
2019-05-06T14:10:43.249Z,2.12
2019-05-06T14:13:13.897Z,3.77
2019-05-06T14:15:43.123Z,2.67
2019-05-06T14:18:13.463Z,3.75
2019-05-06T14:20:42.891Z,3.75
2019-05-06T14:23:12.947Z,3.58
2019-05-06T14:25:57.592Z,3.72
2019-05-06T14:28:43.378Z,4.45
2019-05-06T14:31:13.896Z,3.52
2019-05-06T14:33:42.885Z,3.98
2019-05-06T14:36:12.773Z,2.52
2019-05-06T14:38:44.304Z,3.62
2019-05-06T14:41:26.192Z,3.00
2019-05-06T14:43:52.539Z,2.45
2019-05-06T14:46:22.853Z,4.58
2019-05-06T14:48:53.409Z,2.80
2019-05-06T14:51:22.386Z,4.58
2019-05-06T14:53:56.022Z,3.20
2019-05-06T14:56:38.457Z,3.00
2019-05-06T14:59:08.508Z,1.98
2019-05-06T15:01:39.750Z,3.40
2019-05-06T15:04:08.522Z,3.25
2019-05-06T15:06:37.734Z,4.55
2019-05-06T15:09:07.653Z,4.03
2019-05-06T15:11:36.398Z,3.37
2019-05-06T15:14:05.425Z,3.25
2019-05-06T15:16:35.876Z,4.15
2019-05-06T15:19:05.113Z,2.23
2019-05-06T15:21:38.324Z,1.90
2019-05-06T15:24:04.891Z,3.40
2019-05-06T15:26:33.891Z,3.58
2019-05-06T15:29:03.512Z,2.58
2019-05-06T15:31:41.975Z,2.80
2019-05-06T15:34:24.010Z,2.83
2019-05-06T15:36:54.519Z,2.35
2019-05-06T15:39:23.742Z,2.55
2019-05-06T15:41:52.543Z,4.33
2019-05-06T15:44:23.333Z,4.28
2019-05-06T15:47:04.768Z,4.58
2019-05-06T15:49:33.522Z,3.72
2019-05-06T15:52:03.672Z,2.02
2019-05-06T15:54:32.548Z,2.07
2019-05-06T15:57:03.190Z,3.87
2019-05-06T15:59:33.282Z,2.70
2019-05-06T16:02:07.247Z,2.67
2019-05-06T16:04:37.321Z,3.70
2019-05-06T16:07:06.791Z,3.52
2019-05-06T16:09:37.007Z,3.02
2019-05-06T16:12:06.118Z,3.55
2019-05-06T16:14:45.414Z,4.50
2019-05-06T16:17:15.281Z,2.80
2019-05-06T16:19:44.089Z,3.52
2019-05-06T16:22:12.839Z,1.75
2019-05-06T16:24:49.143Z,2.60
2019-05-06T16:27:18.150Z,1.70
2019-05-06T16:29:47.609Z,4.53
2019-05-06T16:32:16.443Z,3.00
2019-05-06T16:34:45.128Z,3.67
2019-05-06T16:37:14.076Z,3.83
2019-05-06T16:39:42.734Z,3.05
2019-05-06T16:42:13.126Z,2.67
2019-05-06T16:44:45.391Z,2.20
2019-05-06T16:47:36.944Z,2.02
2019-05-06T16:50:06.772Z,3.42
2019-05-06T16:52:35.561Z,2.50
2019-05-06T16:55:05.467Z,2.92
2019-05-06T16:57:34.508Z,2.37
2019-05-06T17:00:06.079Z,3.35
2019-05-06T17:02:37.454Z,2.15
2019-05-06T17:05:16.475Z,2.92
2019-05-06T17:07:45.721Z,2.77
2019-05-06T17:10:15.641Z,3.13
2019-05-06T17:12:45.373Z,5.87
2019-05-06T17:15:14.289Z,2.67
2019-05-06T17:17:46.714Z,3.22
2019-05-06T17:20:14.864Z,2.47
2019-05-06T17:22:43.584Z,2.42
2019-05-06T17:25:13.082Z,2.65
2019-05-06T17:27:43.515Z,2.80
2019-05-06T17:30:33.144Z,2.10
2019-05-06T17:33:22.330Z,2.25
2019-05-06T17:35:52.152Z,2.80
2019-05-06T17:38:23.634Z,2.72
2019-05-06T17:40:52.512Z,3.87
2019-05-06T17:43:22.557Z,3.60
2019-05-06T17:46:01.812Z,3.33
2019-05-06T17:48:28.907Z,3.83
2019-05-06T17:51:13.955Z,2.50
2019-05-06T17:53:44.639Z,2.77
2019-05-06T17:56:13.696Z,2.27
2019-05-06T17:58:42.841Z,2.45
2019-05-06T18:01:14.458Z,3.50
2019-05-06T18:03:53.265Z,2.22
2019-05-06T18:06:23.469Z,2.17
2019-05-06T18:08:52.794Z,2.35
2019-05-06T18:11:22.371Z,3.67
2019-05-06T18:13:52.344Z,4.28
2019-05-06T18:16:22.245Z,4.55
2019-05-06T18:18:52.315Z,3.85
2019-05-06T18:21:22.970Z,4.40
2019-05-06T18:23:52.723Z,2.77
2019-05-06T18:26:23.009Z,3.00
2019-05-06T18:28:53.391Z,3.47
2019-05-06T18:31:22.787Z,4.78
2019-05-06T18:33:59.005Z,4.90
2019-05-06T18:36:27.850Z,4.72
2019-05-06T18:38:58.207Z,5.25
2019-05-06T18:41:29.307Z,5.92
2019-05-06T18:46:49.616Z,3.65
2019-05-06T18:49:18.407Z,8.33
2019-05-06T18:51:51.981Z,10.58
2019-05-06T18:54:22.100Z,13.22
2019-05-06T18:56:52.233Z,8.45
2019-05-06T18:59:24.826Z,5.50
2019-05-06T19:02:07.434Z,4.83
2019-05-06T19:04:38.460Z,4.37
2019-05-06T19:07:12.838Z,4.28
2019-05-06T19:09:42.232Z,3.52
2019-05-06T19:12:12.762Z,5.45
2019-05-06T19:14:43.265Z,3.35
2019-05-06T19:17:13.136Z,3.33
2019-05-06T19:19:42.654Z,3.60
2019-05-06T19:22:13.745Z,3.60
2019-05-06T19:24:42.670Z,4.28
2019-05-06T19:27:12.951Z,5.95
2019-05-06T19:29:43.247Z,3.45
2019-05-06T19:32:12.362Z,4.17
2019-05-06T19:34:42.246Z,2.72
2019-05-06T19:37:11.413Z,3.58
2019-05-06T19:39:40.296Z,3.83
2019-05-06T19:42:09.179Z,3.37
2019-05-06T19:44:38.689Z,3.80
2019-05-06T19:47:08.097Z,3.27
2019-05-06T19:49:38.758Z,3.75
2019-05-06T19:52:10.504Z,3.70
2019-05-06T19:54:39.290Z,4.60
2019-05-06T19:57:15.819Z,5.97
2019-05-06T19:59:52.517Z,4.78
2019-05-06T20:02:25.497Z,5.53
2019-05-06T20:04:55.777Z,4.92
2019-05-06T20:07:27.496Z,4.50
2019-05-06T20:09:59.915Z,4.42
2019-05-06T20:12:43.412Z,4.80
2019-05-06T20:15:28.796Z,4.12
2019-05-06T20:18:03.070Z,4.03
2019-05-06T20:20:34.866Z,4.70
2019-05-06T20:23:03.335Z,3.75
2019-05-06T20:25:32.232Z,3.92
2019-05-06T20:28:02.344Z,4.20
2019-05-06T20:30:36.519Z,3.92
2019-05-06T20:33:05.429Z,3.23
2019-05-06T20:35:34.366Z,3.50
2019-05-06T20:38:03.138Z,6.25
2019-05-06T20:40:32.772Z,5.90
2019-05-06T20:43:16.573Z,5.85
2019-05-06T20:45:35.366Z,7.60
2019-05-06T20:48:03.752Z,6.00
2019-05-06T20:50:32.535Z,4.47
2019-05-06T20:53:01.314Z,4.92
2019-05-06T20:55:34.729Z,4.15
2019-05-06T20:58:12.051Z,4.72
2019-05-06T21:00:38.240Z,5.90
2019-05-06T21:03:06.921Z,5.45
2019-05-06T21:05:35.826Z,4.33
2019-05-06T21:08:04.775Z,5.08
2019-05-06T21:10:42.864Z,5.35
2019-05-06T21:13:31.781Z,5.20
2019-05-06T21:15:55.699Z,4.50
2019-05-06T21:18:25.973Z,5.17
2019-05-06T21:20:56.340Z,4.92
2019-05-06T21:23:25.104Z,5.20
2019-05-06T21:26:05.356Z,6.25
2019-05-06T21:28:34.266Z,6.08
2019-05-06T21:31:03.247Z,5.83
2019-05-06T21:33:32.957Z,5.20
2019-05-06T21:36:03.265Z,5.47
2019-05-06T21:38:32.206Z,3.92
2019-05-06T21:41:09.769Z,5.08
2019-05-06T21:43:47.038Z,4.55
2019-05-06T21:46:09.077Z,6.22
2019-05-06T21:48:41.971Z,5.97
2019-05-06T21:51:12.701Z,7.40
2019-05-06T21:53:41.808Z,6.65
2019-05-06T21:56:12.912Z,6.35
2019-05-06T21:58:42.779Z,6.90
2019-05-06T22:01:14.512Z,6.25
2019-05-06T22:03:43.534Z,5.47
2019-05-06T22:06:13.003Z,5.47
2019-05-06T22:08:42.382Z,5.75
2019-05-06T22:11:13.160Z,6.30
2019-05-06T22:13:42.542Z,6.40
2019-05-06T22:16:12.252Z,6.55
2019-05-06T22:18:43.277Z,6.40
2019-05-06T22:21:13.773Z,4.08
2019-05-06T22:23:56.176Z,4.17
2019-05-06T22:26:25.586Z,4.20
2019-05-06T22:28:56.700Z,4.43
2019-05-06T22:31:26.929Z,5.25
2019-05-06T22:33:59.634Z,4.62
2019-05-06T22:36:28.568Z,4.78
2019-05-06T22:39:03.474Z,4.92
2019-05-06T22:41:32.754Z,4.95
2019-05-06T22:44:13.110Z,5.90
2019-05-06T22:46:34.598Z,5.87
2019-05-06T22:49:03.643Z,5.17
2019-05-06T22:51:32.582Z,6.35
2019-05-06T22:54:02.698Z,5.45
2019-05-06T22:56:32.524Z,4.60
2019-05-06T22:59:03.203Z,4.53
2019-05-06T23:01:46.660Z,4.45
2019-05-06T23:04:17.064Z,5.92
2019-05-06T23:06:45.896Z,4.05
2019-05-06T23:09:14.534Z,5.40
2019-05-06T23:11:43.218Z,5.83
2019-05-06T23:14:13.746Z,5.37
2019-05-06T23:16:42.517Z,5.25
2019-05-06T23:19:12.786Z,7.08
2019-05-06T23:21:43.113Z,5.83
2019-05-06T23:24:13.139Z,5.33
2019-05-06T23:26:48.491Z,6.23
2019-05-06T23:29:17.675Z,5.22
2019-05-06T23:31:46.776Z,5.65
2019-05-06T23:34:15.463Z,5.95
2019-05-06T23:36:52.838Z,5.83
2019-05-06T23:39:42.935Z,4.75
2019-05-06T23:42:29.937Z,5.20
2019-05-06T23:45:18.578Z,4.25
2019-05-06T23:48:05.911Z,5.33
2019-05-06T23:50:52.496Z,4.93
2019-05-06T23:53:39.407Z,3.90
2019-05-06T23:56:26.281Z,4.30
2019-05-06T23:58:54.971Z,5.80
